Terminal Aerodrome Forecast
Issued by NWS

Home | Current Version | Previous Version | Text Only | Print | Product List | Glossary On
Versions: 1 2 3 4 5 6 7 8 9 10 11 12 13 14
530
FTUS46 KHNX 111135
TAFVIS
TAF
KVIS 111135Z 1112/1212 00000KT 4SM BR FEW200
      TEMPO 1113/1117 2SM HZ
     FM112000 VRB03KT P6SM FEW250=

USA.gov is the U.S. government's official web portal to all federal, state and local government web resources and services.